This is the latest recevied weather packets stored in our database for station/object SV7RNH. If no packets are shown the sender has not sent any weather packets the latest 10 day(s).
| Time | Temp. | Humidity | Pressure | Rain* | Wind** | Luminosity | Snow |
|---|---|---|---|---|---|---|---|
| 1777877403 | 16.11° C | 25% | 1021.6 hPa | 0 mm | - | - | - |
| 1777877103 | 16.11° C | 28% | 1021.7 hPa | 0 mm | - | - | - |
| 1777876804 | 15.56° C | 29% | 1021.6 hPa | 0 mm | - | - | - |
| 1777876503 | 16.11° C | 30% | 1021.8 hPa | 0 mm | - | - | - |
| 1777876203 | 15.56° C | 31% | 1021.7 hPa | 0 mm | - | - | - |
| 1777875904 | 15.56° C | 31% | 1021.6 hPa | 0 mm | - | - | - |
| 1777875604 | 15° C | 31% | 1021.6 hPa | 0 mm | - | - | - |
| 1777875304 | 15° C | 31% | 1021.6 hPa | 0 mm | - | - | - |
| 1777875003 | 15° C | 31% | 1021.7 hPa | 0 mm | - | - | - |
| 1777874704 | 13.89° C | 35% | 1021.7 hPa | 0 mm | - | - | - |
| 1777874404 | 13.89° C | 35% | 1021.7 hPa | 0 mm | - | - | - |
| 1777874103 | 13.33° C | 35% | 1021.7 hPa | 0 mm | - | - | - |
| 1777873803 | 12.78° C | 35% | 1021.5 hPa | 0 mm | - | - | - |
| 1777873504 | 12.22° C | 35% | 1021.5 hPa | 0 mm | - | - | - |
| 1777873203 | 12.22° C | 36% | 1021.6 hPa | 0 mm | - | - | - |
| 1777872903 | 12.22° C | 36% | 1021.7 hPa | 0 mm | - | - | - |
| 1777872604 | 12.22° C | 36% | 1021.7 hPa | 0 mm | - | - | - |
| 1777872304 | 12.22° C | 35% | 1021.6 hPa | 0 mm | - | - | - |
| 1777872004 | 12.78° C | 34% | 1021.6 hPa | 0 mm | - | - | - |
| 1777871703 | 13.89° C | 32% | 1021.6 hPa | 0 mm | - | - | - |
| 1777871403 | 14.44° C | 29% | 1021.5 hPa | 0 mm | - | - | - |
| 1777871104 | 14.44° C | 28% | 1021.4 hPa | 0 mm | - | - | - |
| 1777870804 | 13.89° C | 28% | 1021.3 hPa | 0 mm | - | - | - |
| 1777870503 | 13.89° C | 30% | 1021.3 hPa | 0 mm | - | - | - |
| 1777870203 | 13.89° C | 31% | 1021.4 hPa | 0 mm | - | - | - |
* Rain latest hour (hover to see other rain measurements)
** Current wind speed in m/s (hover to see current wind gust speed)